sensor_id;sensor_type;location;lat;lon;timestamp;temperature;humidity
55269;DHT22;41131;42.990;21.954;2023-04-06T00:01:42;153.60;2252.80
55269;DHT22;41131;42.990;21.954;2023-04-06T00:04:08;153.60;2252.80
55269;DHT22;41131;42.990;21.954;2023-04-06T00:06:34;153.60;2252.80
55269;DHT22;41131;42.990;21.954;2023-04-06T00:09:00;128.90;2252.80
55269;DHT22;41131;42.990;21.954;2023-04-06T00:11:26;128.90;2252.80
55269;DHT22;41131;42.990;21.954;2023-04-06T00:13:52;153.60;2252.80
55269;DHT22;41131;42.990;21.954;2023-04-06T00:16:18;153.60;2252.80
55269;DHT22;41131;42.990;21.954;2023-04-06T00:18:44;153.60;2252.80
55269;DHT22;41131;42.990;21.954;2023-04-06T00:21:13;153.60;2252.80
55269;DHT22;41131;42.990;21.954;2023-04-06T00:23:40;153.70;2252.80
55269;DHT22;41131;42.990;21.954;2023-04-06T00:26:06;153.60;2252.80
55269;DHT22;41131;42.990;21.954;2023-04-06T00:28:32;128.90;2252.80
55269;DHT22;41131;42.990;21.954;2023-04-06T00:30:57;128.80;2252.80
55269;DHT22;41131;42.990;21.954;2023-04-06T00:33:23;128.80;2252.80
55269;DHT22;41131;42.990;21.954;2023-04-06T00:35:49;128.90;2252.80
55269;DHT22;41131;42.990;21.954;2023-04-06T00:38:16;128.90;2252.80
55269;DHT22;41131;42.990;21.954;2023-04-06T00:40:45;128.90;2252.80
55269;DHT22;41131;42.990;21.954;2023-04-06T00:43:11;153.60;2252.80
55269;DHT22;41131;42.990;21.954;2023-04-06T00:45:41;128.90;2252.80
55269;DHT22;41131;42.990;21.954;2023-04-06T00:48:08;128.90;2252.80
55269;DHT22;41131;42.990;21.954;2023-04-06T00:50:34;128.80;2252.80
55269;DHT22;41131;42.990;21.954;2023-04-06T00:53:01;128.80;2252.80
55269;DHT22;41131;42.990;21.954;2023-04-06T00:55:27;153.60;2252.80
55269;DHT22;41131;42.990;21.954;2023-04-06T00:57:53;153.60;2252.80
55269;DHT22;41131;42.990;21.954;2023-04-06T01:00:19;153.60;2252.80
55269;DHT22;41131;42.990;21.954;2023-04-06T01:02:45;153.60;2252.80
55269;DHT22;41131;42.990;21.954;2023-04-06T01:05:11;153.70;2252.80
55269;DHT22;41131;42.990;21.954;2023-04-06T01:07:37;153.60;2252.80
55269;DHT22;41131;42.990;21.954;2023-04-06T01:10:03;153.60;2252.80
55269;DHT22;41131;42.990;21.954;2023-04-06T01:12:29;153.60;2252.80
55269;DHT22;41131;42.990;21.954;2023-04-06T01:14:55;153.60;2252.80
55269;DHT22;41131;42.990;21.954;2023-04-06T01:17:22;128.90;2252.80
55269;DHT22;41131;42.990;21.954;2023-04-06T01:19:47;153.60;2252.80
55269;DHT22;41131;42.990;21.954;2023-04-06T01:22:16;153.60;2252.80
55269;DHT22;41131;42.990;21.954;2023-04-06T01:24:42;128.90;2252.80
55269;DHT22;41131;42.990;21.954;2023-04-06T01:27:08;128.90;2252.80
55269;DHT22;41131;42.990;21.954;2023-04-06T01:29:33;153.60;2252.80
55269;DHT22;41131;42.990;21.954;2023-04-06T01:31:59;153.60;2252.80
55269;DHT22;41131;42.990;21.954;2023-04-06T01:34:25;128.90;2252.80
55269;DHT22;41131;42.990;21.954;2023-04-06T01:36:51;128.90;2252.80
55269;DHT22;41131;42.990;21.954;2023-04-06T01:39:17;128.90;2252.80
55269;DHT22;41131;42.990;21.954;2023-04-06T01:41:42;128.90;2252.80
55269;DHT22;41131;42.990;21.954;2023-04-06T01:44:08;128.90;2252.80
55269;DHT22;41131;42.990;21.954;2023-04-06T01:46:34;128.90;2252.80
55269;DHT22;41131;42.990;21.954;2023-04-06T01:49:00;128.80;2252.80
55269;DHT22;41131;42.990;21.954;2023-04-06T01:51:25;128.80;2252.80
55269;DHT22;41131;42.990;21.954;2023-04-06T01:53:52;128.80;2252.80
55269;DHT22;41131;42.990;21.954;2023-04-06T01:56:18;128.90;2252.80
55269;DHT22;41131;42.990;21.954;2023-04-06T01:58:43;128.90;2252.80
55269;DHT22;41131;42.990;21.954;2023-04-06T02:01:09;128.90;2252.80
55269;DHT22;41131;42.990;21.954;2023-04-06T02:03:35;128.90;2252.80
55269;DHT22;41131;42.990;21.954;2023-04-06T06:56:08;154.30;2252.80
55269;DHT22;41131;42.990;21.954;2023-04-06T06:58:33;154.10;2252.80
55269;DHT22;41131;42.990;21.954;2023-04-06T07:00:59;154.00;2252.80
55269;DHT22;41131;42.990;21.954;2023-04-06T07:03:25;154.00;2252.80
55269;DHT22;41131;42.990;21.954;2023-04-06T07:05:51;154.00;2252.80
55269;DHT22;41131;42.990;21.954;2023-04-06T07:08:24;154.00;2252.80
55269;DHT22;41131;42.990;21.954;2023-04-06T07:10:51;154.00;2252.80
55269;DHT22;41131;42.990;21.954;2023-04-06T07:13:18;154.00;2252.80
55269;DHT22;41131;42.990;21.954;2023-04-06T07:15:51;154.10;2252.80
55269;DHT22;41131;42.990;21.954;2023-04-06T07:18:17;154.20;2252.80
55269;DHT22;41131;42.990;21.954;2023-04-06T07:20:43;154.30;2252.80
55269;DHT22;41131;42.990;21.954;2023-04-06T07:23:09;154.40;2252.80
55269;DHT22;41131;42.990;21.954;2023-04-06T07:28:05;179.50;2252.80
55269;DHT22;41131;42.990;21.954;2023-04-06T07:30:30;179.30;2252.80
55269;DHT22;41131;42.990;21.954;2023-04-06T07:32:56;179.30;2252.80
